createdAt,value
2018-11-21T00:01:22.657Z,8.20
2018-11-21T00:03:49.189Z,8.57
2018-11-21T00:06:15.563Z,7.17
2018-11-21T00:08:42.061Z,7.90
2018-11-21T00:11:08.549Z,7.70
2018-11-21T00:13:35.197Z,8.40
2018-11-21T00:16:01.669Z,7.53
2018-11-21T00:18:28.019Z,6.87
2018-11-21T00:20:54.381Z,7.70
2018-11-21T00:23:20.967Z,8.10
2018-11-21T00:25:47.488Z,7.53
2018-11-21T00:28:13.892Z,7.13
2018-11-21T00:30:40.371Z,7.17
2018-11-21T00:33:06.852Z,8.17
2018-11-21T00:35:33.530Z,7.60
2018-11-21T00:38:00.111Z,8.43
2018-11-21T00:40:26.957Z,7.57
2018-11-21T00:42:53.419Z,7.37
2018-11-21T00:45:19.813Z,8.33
2018-11-21T00:47:46.262Z,7.33
2018-11-21T00:50:13.905Z,8.23
2018-11-21T00:52:40.803Z,7.80
2018-11-21T00:55:07.530Z,8.90
2018-11-21T00:57:33.947Z,7.90
2018-11-21T01:00:00.756Z,7.47
2018-11-21T01:02:27.512Z,8.43
2018-11-21T01:04:54.025Z,7.90
2018-11-21T01:07:21.434Z,7.00
2018-11-21T01:09:48.082Z,6.57
2018-11-21T01:12:14.632Z,9.03
2018-11-21T01:14:41.106Z,8.90
2018-11-21T01:17:07.664Z,8.00
2018-11-21T01:19:34.124Z,8.63
2018-11-21T01:22:00.792Z,8.13
2018-11-21T01:24:27.200Z,7.57
2018-11-21T01:26:53.875Z,8.37
2018-11-21T01:29:20.355Z,9.63
2018-11-21T01:31:46.985Z,8.73
2018-11-21T01:34:13.375Z,8.23
2018-11-21T01:36:39.972Z,8.07
2018-11-21T01:39:06.604Z,7.70
2018-11-21T01:41:33.358Z,8.00
2018-11-21T01:44:00.147Z,8.20
2018-11-21T01:46:26.591Z,8.23
2018-11-21T01:48:53.065Z,8.33
2018-11-21T01:51:19.867Z,7.90
2018-11-21T01:53:46.265Z,7.33
2018-11-21T01:56:12.758Z,7.43
2018-11-21T01:58:39.197Z,7.20
2018-11-21T02:01:05.587Z,8.27
2018-11-21T02:03:32.080Z,6.33
2018-11-21T02:05:58.988Z,6.60
2018-11-21T02:08:25.453Z,7.93
2018-11-21T02:10:51.815Z,6.63
2018-11-21T02:13:18.552Z,7.00
2018-11-21T02:15:44.883Z,7.93
2018-11-21T02:18:11.346Z,7.73
2018-11-21T02:20:38.113Z,7.67
2018-11-21T02:23:05.363Z,7.80
2018-11-21T02:25:31.866Z,7.83
2018-11-21T02:27:58.323Z,6.70
2018-11-21T02:30:24.846Z,6.03
2018-11-21T02:32:51.626Z,8.30
2018-11-21T02:35:22.641Z,7.53
2018-11-21T02:37:49.211Z,6.67
2018-11-21T02:40:15.676Z,7.53
2018-11-21T02:42:42.363Z,6.67
2018-11-21T02:45:08.832Z,6.97
2018-11-21T02:47:35.464Z,6.77
2018-11-21T02:50:02.053Z,8.27
2018-11-21T02:52:28.706Z,7.03
2018-11-21T02:54:55.183Z,8.07
2018-11-21T02:57:22.738Z,7.00
2018-11-21T02:59:49.472Z,7.20
2018-11-21T03:02:16.456Z,7.17
2018-11-21T03:04:42.860Z,7.37
2018-11-21T03:07:09.466Z,7.70
2018-11-21T03:09:36.236Z,7.37
2018-11-21T03:12:03.463Z,7.87
2018-11-21T03:14:29.910Z,7.73
2018-11-21T03:16:56.587Z,8.63
2018-11-21T03:19:23.055Z,8.53
2018-11-21T03:21:49.872Z,7.67
2018-11-21T03:24:16.342Z,9.27
2018-11-21T03:26:42.821Z,8.83
2018-11-21T03:29:09.763Z,8.60
2018-11-21T03:31:36.679Z,9.37
2018-11-21T03:34:03.300Z,8.17
2018-11-21T03:36:30.046Z,7.43
2018-11-21T03:38:56.446Z,8.67
2018-11-21T03:41:22.949Z,7.10
2018-11-21T03:43:49.533Z,8.10
2018-11-21T03:46:15.916Z,7.63
2018-11-21T03:48:42.270Z,9.27
2018-11-21T03:51:09.267Z,9.80
2018-11-21T03:53:35.645Z,7.53
2018-11-21T03:56:02.552Z,8.10
2018-11-21T03:58:29.129Z,8.47
2018-11-21T04:00:55.678Z,8.97
2018-11-21T04:03:22.421Z,8.07
2018-11-21T04:05:48.815Z,8.00
2018-11-21T04:08:15.213Z,8.07
2018-11-21T04:10:41.596Z,9.07
2018-11-21T04:13:08.754Z,8.60
2018-11-21T04:15:35.262Z,8.30
2018-11-21T04:18:01.624Z,7.67
2018-11-21T04:20:28.040Z,8.97
2018-11-21T04:22:54.449Z,7.70
2018-11-21T04:25:21.018Z,8.00
2018-11-21T04:27:47.577Z,8.13
2018-11-21T04:30:14.136Z,9.43
2018-11-21T04:32:40.857Z,8.40
2018-11-21T04:35:07.864Z,8.67
2018-11-21T04:37:34.770Z,9.13
2018-11-21T04:40:01.515Z,8.30
2018-11-21T04:42:28.279Z,8.67
2018-11-21T04:44:54.815Z,9.30
2018-11-21T04:47:21.198Z,8.97
2018-11-21T04:49:47.591Z,9.40
2018-11-21T04:52:14.771Z,8.73
2018-11-21T04:54:41.163Z,9.20
2018-11-21T04:57:07.520Z,8.77
2018-11-21T04:59:34.061Z,8.73
2018-11-21T05:02:00.768Z,8.67
2018-11-21T05:04:27.305Z,8.63
2018-11-21T05:06:53.897Z,9.43
2018-11-21T05:09:20.302Z,9.40
2018-11-21T05:11:46.670Z,8.67
2018-11-21T05:14:13.397Z,8.53
2018-11-21T05:16:39.847Z,9.80
2018-11-21T05:19:06.358Z,9.50
2018-11-21T05:21:33.099Z,10.23
2018-11-21T05:23:59.482Z,10.27
2018-11-21T05:26:25.968Z,9.47
2018-11-21T05:28:52.358Z,9.37
2018-11-21T05:31:19.402Z,8.53
2018-11-21T05:33:45.882Z,8.83
2018-11-21T05:36:12.422Z,9.00
2018-11-21T05:38:38.920Z,8.77
2018-11-21T05:41:05.346Z,8.63
2018-11-21T05:43:31.817Z,9.27
2018-11-21T05:45:58.839Z,9.00
2018-11-21T05:48:25.328Z,9.43
2018-11-21T05:50:51.994Z,8.53
2018-11-21T05:53:18.448Z,8.63
2018-11-21T05:55:44.916Z,9.03
2018-11-21T05:58:11.524Z,9.73
2018-11-21T06:00:38.317Z,8.27
2018-11-21T06:03:04.774Z,7.50
2018-11-21T06:05:31.350Z,8.67
2018-11-21T06:07:57.990Z,10.27
2018-11-21T06:10:24.355Z,9.37
2018-11-21T06:12:50.716Z,10.80
2018-11-21T06:15:17.190Z,9.60
2018-11-21T06:17:48.035Z,9.20
2018-11-21T06:20:11.188Z,9.73
2018-11-21T06:22:37.724Z,9.67
2018-11-21T06:25:04.096Z,9.07
2018-11-21T06:27:30.483Z,8.67
2018-11-21T06:29:57.084Z,8.90
2018-11-21T06:32:24.068Z,9.73
2018-11-21T06:34:50.585Z,8.83
2018-11-21T06:37:17.154Z,9.43
2018-11-21T06:39:43.690Z,9.27
2018-11-21T06:42:10.544Z,9.63
2018-11-21T06:44:37.113Z,8.93
2018-11-21T06:47:03.506Z,9.80
2018-11-21T06:49:30.055Z,9.17
2018-11-21T06:51:56.475Z,8.63
2018-11-21T06:54:23.239Z,10.43
2018-11-21T06:56:49.635Z,9.73
2018-11-21T06:59:16.068Z,9.40
2018-11-21T07:01:42.663Z,9.43
2018-11-21T07:04:09.399Z,9.60
2018-11-21T07:06:35.943Z,10.13
2018-11-21T07:09:02.407Z,8.63
2018-11-21T07:11:28.827Z,10.77
2018-11-21T07:13:55.196Z,10.00
2018-11-21T07:16:21.897Z,9.30
2018-11-21T07:18:48.298Z,8.93
2018-11-21T07:21:14.727Z,8.57
2018-11-21T07:23:41.756Z,9.37
2018-11-21T07:26:08.405Z,9.20
2018-11-21T07:28:34.929Z,10.13
2018-11-21T07:31:01.335Z,10.37
2018-11-21T07:33:28.183Z,9.27
2018-11-21T07:35:54.695Z,8.10
2018-11-21T07:38:21.195Z,9.67
2018-11-21T07:40:47.748Z,8.63
2018-11-21T07:43:14.202Z,8.53
2018-11-21T07:45:40.641Z,8.50
2018-11-21T07:48:07.155Z,9.83
2018-11-21T07:50:33.573Z,8.97
2018-11-21T07:53:00.024Z,8.63
2018-11-21T07:55:26.454Z,9.83
2018-11-21T07:57:58.097Z,8.37
2018-11-21T08:00:24.636Z,8.60
2018-11-21T08:02:51.269Z,12.93
2018-11-21T08:05:28.340Z,10.43
2018-11-21T08:08:00.922Z,9.83
2018-11-21T08:10:42.332Z,9.70
2018-11-21T08:13:38.117Z,10.23
2018-11-21T08:16:24.058Z,10.33
2018-11-21T08:19:25.452Z,8.50
2018-11-21T08:22:10.275Z,9.60
2018-11-21T08:24:51.362Z,10.23
2018-11-21T08:27:26.640Z,8.80
2018-11-21T08:29:53.034Z,9.70
2018-11-21T08:32:19.569Z,9.40
2018-11-21T08:34:46.242Z,8.90
2018-11-21T08:37:13.156Z,8.90
2018-11-21T08:39:40.076Z,10.43
2018-11-21T08:42:06.867Z,9.07
2018-11-21T08:44:33.282Z,9.17
2018-11-21T08:46:59.750Z,9.20
2018-11-21T08:49:26.172Z,9.97
2018-11-21T08:51:52.553Z,10.27
2018-11-21T08:54:18.942Z,10.27
2018-11-21T08:56:45.435Z,11.03
2018-11-21T08:59:11.993Z,8.87
2018-11-21T09:01:38.725Z,8.40
2018-11-21T09:04:05.302Z,8.83
2018-11-21T09:06:31.908Z,10.23
2018-11-21T09:08:58.311Z,9.97
2018-11-21T09:11:24.855Z,9.60
2018-11-21T09:13:53.224Z,8.60
2018-11-21T09:16:17.833Z,9.43
2018-11-21T09:18:44.282Z,8.73
2018-11-21T09:21:10.860Z,9.17
2018-11-21T09:23:37.291Z,9.50
2018-11-21T09:26:03.683Z,9.83
2018-11-21T09:28:30.188Z,9.97
2018-11-21T09:30:56.727Z,9.13
2018-11-21T09:33:23.099Z,9.40
2018-11-21T09:35:50.017Z,9.37
2018-11-21T09:38:16.447Z,8.50
2018-11-21T09:40:46.051Z,8.70
2018-11-21T09:43:12.518Z,9.43
2018-11-21T09:45:39.002Z,9.70
2018-11-21T09:48:05.397Z,8.83
2018-11-21T09:50:32.797Z,9.03
2018-11-21T09:52:59.609Z,9.93
2018-11-21T09:55:26.175Z,7.83
2018-11-21T09:57:52.735Z,10.17
2018-11-21T10:00:19.677Z,7.77
2018-11-21T10:02:46.206Z,8.50
2018-11-21T10:05:12.785Z,8.70
2018-11-21T10:07:39.180Z,9.23
2018-11-21T10:10:05.592Z,9.73
2018-11-21T10:12:32.017Z,8.50
2018-11-21T10:14:58.453Z,9.17
2018-11-21T10:17:25.026Z,8.43
2018-11-21T10:19:51.412Z,8.70
2018-11-21T10:22:17.948Z,9.80
2018-11-21T10:24:44.429Z,8.53
2018-11-21T10:27:11.186Z,9.70
2018-11-21T10:29:37.874Z,8.10
2018-11-21T10:32:04.671Z,8.00
2018-11-21T10:34:31.046Z,8.50
2018-11-21T10:36:57.902Z,8.93
2018-11-21T10:39:24.782Z,8.50
2018-11-21T10:41:51.312Z,9.27
2018-11-21T10:44:17.808Z,8.63
2018-11-21T10:46:44.607Z,8.87
2018-11-21T10:49:10.999Z,9.07
2018-11-21T10:51:37.484Z,9.23
2018-11-21T10:54:04.440Z,8.87
2018-11-21T10:56:31.128Z,8.77
2018-11-21T10:58:57.690Z,8.60
2018-11-21T11:01:43.768Z,7.30
2018-11-21T11:04:14.770Z,8.57
2018-11-21T11:06:59.674Z,8.67
2018-11-21T11:09:48.663Z,8.57
2018-11-21T11:12:46.911Z,8.60
2018-11-21T11:15:38.685Z,7.97
2018-11-21T11:18:24.613Z,8.20
2018-11-21T11:21:25.771Z,8.43
2018-11-21T11:24:17.328Z,7.93
2018-11-21T11:27:05.999Z,7.27
2018-11-21T11:29:53.542Z,8.03
2018-11-21T11:32:45.724Z,7.27
2018-11-21T11:35:50.386Z,9.17
2018-11-21T11:38:25.875Z,7.70
2018-11-21T11:41:12.073Z,8.30
2018-11-21T11:43:56.761Z,7.97
2018-11-21T11:46:55.184Z,7.87
2018-11-21T11:49:53.138Z,6.40
2018-11-21T11:52:38.015Z,7.87
2018-11-21T11:55:41.930Z,7.47
2018-11-21T11:58:26.891Z,8.17
2018-11-21T12:01:15.736Z,7.27
2018-11-21T12:04:00.195Z,8.27
2018-11-21T12:06:45.438Z,7.60
2018-11-21T12:09:40.448Z,6.60
2018-11-21T12:12:45.212Z,7.33
2018-11-21T12:15:36.954Z,7.17
2018-11-21T12:18:22.956Z,7.07
2018-11-21T12:21:08.039Z,8.10
2018-11-21T12:24:03.062Z,7.73
2018-11-21T12:26:55.216Z,8.33
2018-11-21T12:29:52.494Z,7.87
2018-11-21T12:32:39.329Z,7.20
2018-11-21T12:35:35.392Z,8.03
2018-11-21T12:38:27.318Z,6.57
2018-11-21T12:41:12.004Z,7.80
2018-11-21T12:44:03.746Z,8.00
2018-11-21T12:46:48.427Z,7.60
2018-11-21T12:49:43.444Z,7.77
2018-11-21T12:52:23.333Z,7.17
2018-11-21T12:55:07.929Z,7.27
2018-11-21T12:58:02.510Z,7.50
2018-11-21T13:00:56.499Z,7.20
2018-11-21T13:03:48.412Z,7.53
2018-11-21T13:06:36.611Z,7.17
2018-11-21T13:09:31.585Z,7.63
2018-11-21T13:12:16.911Z,8.30
2018-11-21T13:14:49.836Z,7.30
2018-11-21T13:17:42.197Z,8.00
2018-11-21T13:20:27.343Z,7.30
2018-11-21T13:23:22.325Z,7.70
2018-11-21T13:26:13.988Z,6.70
2018-11-21T13:28:53.915Z,6.97
2018-11-21T13:31:55.494Z,7.20
2018-11-21T13:34:50.803Z,7.80
2018-11-21T13:37:42.859Z,7.40
2018-11-21T13:40:46.950Z,6.60
2018-11-21T13:43:27.642Z,7.73
2018-11-21T13:46:19.668Z,6.47
2018-11-21T13:49:04.953Z,7.23
2018-11-21T13:51:51.067Z,7.67
2018-11-21T13:54:43.209Z,7.07
2018-11-21T13:57:09.641Z,7.20
2018-11-21T13:59:36.364Z,7.60
2018-11-21T14:02:03.585Z,7.37
2018-11-21T14:04:30.271Z,7.77
2018-11-21T14:06:56.734Z,6.93
2018-11-21T14:09:23.642Z,7.03
2018-11-21T14:11:50.592Z,8.43
2018-11-21T14:14:17.225Z,7.30
2018-11-21T14:16:43.756Z,6.93
2018-11-21T14:19:10.276Z,7.97
2018-11-21T14:21:36.906Z,8.03
2018-11-21T14:24:03.308Z,7.70
2018-11-21T14:26:29.760Z,8.10
2018-11-21T14:28:56.152Z,7.47
2018-11-21T14:31:23.488Z,7.13
2018-11-21T14:33:50.522Z,8.00
2018-11-21T14:36:17.046Z,7.40
2018-11-21T14:38:43.533Z,7.77
2018-11-21T14:41:12.544Z,7.30
2018-11-21T14:43:39.586Z,7.67
2018-11-21T14:46:07.511Z,7.63
2018-11-21T14:48:33.966Z,8.33
2018-11-21T14:51:00.480Z,8.67
2018-11-21T14:53:27.116Z,7.73
2018-11-21T14:55:54.263Z,7.63
2018-11-21T14:58:21.676Z,7.50
2018-11-21T15:00:48.163Z,7.93
2018-11-21T15:03:18.401Z,7.87
2018-11-21T15:05:41.624Z,8.80
2018-11-21T15:08:09.054Z,8.20
2018-11-21T15:10:35.582Z,7.53
2018-11-21T15:13:02.273Z,8.67
2018-11-21T15:15:29.136Z,8.03
2018-11-21T15:17:55.951Z,7.23
2018-11-21T15:20:23.674Z,8.57
2018-11-21T15:22:50.099Z,8.20
2018-11-21T15:25:18.084Z,8.00
2018-11-21T15:27:44.502Z,8.70
2018-11-21T15:30:11.198Z,7.83
2018-11-21T15:32:38.137Z,8.03
2018-11-21T15:35:04.611Z,7.37
2018-11-21T15:37:31.158Z,8.30
2018-11-21T15:39:57.772Z,7.27
2018-11-21T15:42:24.327Z,7.80
2018-11-21T15:44:50.982Z,8.83
2018-11-21T15:47:17.483Z,7.43
2018-11-21T15:49:44.000Z,7.53
2018-11-21T15:52:10.629Z,8.27
2018-11-21T15:54:39.926Z,8.27
2018-11-21T15:57:06.631Z,8.33
2018-11-21T15:59:33.362Z,8.43
2018-11-21T16:01:59.873Z,8.30
2018-11-21T16:04:26.527Z,7.63
2018-11-21T16:06:53.160Z,7.97
2018-11-21T16:09:19.799Z,8.20
2018-11-21T16:11:46.378Z,7.63
2018-11-21T16:14:12.781Z,8.97
2018-11-21T16:16:39.173Z,8.67
2018-11-21T16:19:05.970Z,9.07
2018-11-21T16:21:32.822Z,8.50
2018-11-21T16:23:59.233Z,8.43
2018-11-21T16:26:25.745Z,8.20
2018-11-21T16:28:52.416Z,7.87
2018-11-21T16:31:19.100Z,8.27
2018-11-21T16:33:45.518Z,7.77
2018-11-21T16:36:12.092Z,8.73
2018-11-21T16:38:38.637Z,9.23
2018-11-21T16:41:05.166Z,8.80
2018-11-21T16:43:31.524Z,9.83
2018-11-21T16:45:58.157Z,7.73
2018-11-21T16:48:24.688Z,9.13
2018-11-21T16:50:51.325Z,8.57
2018-11-21T16:53:17.818Z,8.53
2018-11-21T16:55:44.485Z,7.97
2018-11-21T16:58:11.718Z,8.63
2018-11-21T17:00:38.155Z,10.40
2018-11-21T17:03:04.606Z,8.17
2018-11-21T17:05:31.413Z,8.97
2018-11-21T17:07:58.848Z,8.77
2018-11-21T17:10:29.010Z,7.50
2018-11-21T17:12:55.373Z,7.97
2018-11-21T17:15:23.686Z,8.60
2018-11-21T17:17:50.232Z,7.93
2018-11-21T17:20:21.098Z,8.03
2018-11-21T17:22:48.751Z,8.30
2018-11-21T17:26:01.276Z,9.00
2018-11-21T17:28:28.624Z,11.10
2018-11-21T17:30:56.152Z,9.50
2018-11-21T17:33:23.519Z,8.20
2018-11-21T17:35:50.832Z,8.57
2018-11-21T17:38:18.675Z,9.77
2018-11-21T17:40:46.760Z,7.97
2018-11-21T17:43:14.254Z,10.43
2018-11-21T17:45:41.580Z,9.43
2018-11-21T17:48:09.182Z,8.43
2018-11-21T17:50:37.770Z,8.87
2018-11-21T17:53:06.235Z,9.07
2018-11-21T17:55:34.880Z,8.73
2018-11-21T17:58:02.388Z,9.83
2018-11-21T18:00:31.602Z,8.57
2018-11-21T18:02:59.167Z,8.57
2018-11-21T18:05:28.335Z,8.43
2018-11-21T18:07:55.801Z,8.90
2018-11-21T18:10:24.970Z,8.33
2018-11-21T18:12:53.439Z,8.30
2018-11-21T18:15:21.090Z,9.00
2018-11-21T18:17:49.251Z,8.30
2018-11-21T18:20:17.188Z,9.03
2018-11-21T18:22:45.458Z,10.17
2018-11-21T18:25:14.167Z,8.30
2018-11-21T18:27:41.780Z,10.00
2018-11-21T18:30:09.084Z,8.27
2018-11-21T18:32:36.542Z,8.53
2018-11-21T18:35:03.822Z,10.00
2018-11-21T18:37:31.141Z,8.80
2018-11-21T18:39:59.725Z,8.80
2018-11-21T18:42:27.469Z,9.63
2018-11-21T18:44:55.786Z,9.80
2018-11-21T18:47:23.378Z,9.20
2018-11-21T18:49:51.817Z,8.63
2018-11-21T18:52:20.356Z,11.00
2018-11-21T18:54:48.060Z,8.80
2018-11-21T18:57:15.830Z,10.03
2018-11-21T18:59:43.491Z,8.73
2018-11-21T19:02:10.935Z,9.40
2018-11-21T19:04:38.394Z,9.77
2018-11-21T19:07:06.281Z,7.77
2018-11-21T19:09:33.507Z,8.27
2018-11-21T19:12:01.650Z,9.43
2018-11-21T19:14:30.137Z,9.10
2018-11-21T19:16:57.685Z,9.50
2018-11-21T19:19:25.186Z,10.27
2018-11-21T19:21:52.842Z,10.33
2018-11-21T19:24:20.114Z,9.50
2018-11-21T19:26:47.636Z,11.37
2018-11-21T19:29:14.975Z,10.83
2018-11-21T19:31:42.429Z,9.60
2018-11-21T19:34:09.897Z,9.93
2018-11-21T19:36:37.448Z,10.43
2018-11-21T19:39:04.850Z,10.70
2018-11-21T19:41:32.462Z,10.53
2018-11-21T19:44:00.086Z,10.00
2018-11-21T19:46:27.473Z,10.40
2018-11-21T19:48:54.970Z,10.70
2018-11-21T19:54:02.067Z,9.93
2018-11-21T19:56:31.086Z,9.87
2018-11-21T19:58:59.461Z,10.63
2018-11-21T20:01:26.909Z,11.37
2018-11-21T20:03:54.200Z,10.07
2018-11-21T20:06:21.786Z,9.87
2018-11-21T20:08:49.543Z,11.00
2018-11-21T20:11:17.679Z,10.67
2018-11-21T20:13:45.257Z,10.33
2018-11-21T20:16:13.457Z,10.87
2018-11-21T20:18:41.181Z,10.77
2018-11-21T20:21:08.583Z,9.80
2018-11-21T20:23:36.067Z,10.33
2018-11-21T20:26:04.001Z,9.60
2018-11-21T20:28:31.320Z,10.37
2018-11-21T20:30:58.461Z,10.33
2018-11-21T20:33:27.075Z,10.73
2018-11-21T20:35:54.657Z,10.47
2018-11-21T20:38:22.508Z,10.70
2018-11-21T20:40:49.998Z,9.80
2018-11-21T20:43:18.479Z,10.50
2018-11-21T20:45:46.509Z,10.10
2018-11-21T20:48:15.148Z,10.30
2018-11-21T20:50:42.453Z,10.17
2018-11-21T20:53:10.008Z,10.30
2018-11-21T20:55:38.751Z,9.27
2018-11-21T20:58:06.305Z,9.40
2018-11-21T21:00:34.545Z,9.50
2018-11-21T21:03:01.934Z,10.63
2018-11-21T21:05:29.283Z,9.90
2018-11-21T21:07:56.695Z,9.90
2018-11-21T21:10:28.285Z,9.47
2018-11-21T21:12:55.737Z,9.37
2018-11-21T21:15:23.409Z,9.90
2018-11-21T21:17:51.259Z,9.90
2018-11-21T21:20:20.454Z,9.40
2018-11-21T21:22:49.238Z,10.07
2018-11-21T21:25:18.402Z,8.97
2018-11-21T21:27:45.882Z,9.80
2018-11-21T21:30:14.909Z,10.73
2018-11-21T21:32:43.324Z,8.53
2018-11-21T21:35:11.947Z,9.17
2018-11-21T21:37:39.479Z,9.30
2018-11-21T21:40:06.956Z,10.00
2018-11-21T21:42:34.403Z,9.57
2018-11-21T21:45:01.762Z,9.13
2018-11-21T21:47:29.128Z,8.93
2018-11-21T21:50:02.038Z,9.70
2018-11-21T21:52:29.620Z,9.13
2018-11-21T21:54:57.008Z,9.03
2018-11-21T21:57:25.366Z,9.13
2018-11-21T21:59:52.789Z,8.63
2018-11-21T22:02:20.466Z,8.70
2018-11-21T22:04:48.118Z,8.60
2018-11-21T22:07:15.952Z,9.00
2018-11-21T22:09:43.306Z,7.90
2018-11-21T22:12:10.793Z,9.27
2018-11-21T22:14:38.017Z,8.40
2018-11-21T22:17:05.401Z,8.20
2018-11-21T22:19:33.052Z,8.53
2018-11-21T22:22:00.325Z,9.03
2018-11-21T22:24:28.116Z,8.67
2018-11-21T22:26:56.307Z,9.10
2018-11-21T22:29:23.635Z,8.10
2018-11-21T22:31:50.916Z,8.53
2018-11-21T22:34:18.637Z,8.97
2018-11-21T22:36:46.179Z,8.67
2018-11-21T22:39:14.209Z,8.40
2018-11-21T22:41:42.154Z,8.97
2018-11-21T22:44:09.442Z,8.20
2018-11-21T22:46:36.761Z,8.63
2018-11-21T22:49:05.103Z,7.80
2018-11-21T22:51:32.543Z,8.70
2018-11-21T22:54:00.100Z,8.50
2018-11-21T22:56:27.594Z,9.07
2018-11-21T22:58:54.865Z,8.57
2018-11-21T23:01:26.804Z,9.03
2018-11-21T23:03:54.709Z,8.47
2018-11-21T23:06:22.193Z,8.00
2018-11-21T23:08:49.616Z,9.40
2018-11-21T23:11:17.107Z,8.10
2018-11-21T23:13:45.139Z,9.13
2018-11-21T23:16:12.745Z,8.63
2018-11-21T23:18:41.085Z,8.77
2018-11-21T23:21:08.739Z,9.00
2018-11-21T23:23:36.419Z,8.20
2018-11-21T23:26:04.076Z,9.00
2018-11-21T23:28:32.345Z,7.63
2018-11-21T23:30:59.829Z,8.37
2018-11-21T23:33:27.774Z,8.80
2018-11-21T23:35:55.459Z,9.10
2018-11-21T23:38:22.625Z,8.07
2018-11-21T23:40:50.374Z,8.80
2018-11-21T23:43:17.614Z,8.47
2018-11-21T23:45:44.924Z,8.17
2018-11-21T23:48:13.441Z,8.33
2018-11-21T23:50:40.980Z,8.70
2018-11-21T23:53:08.428Z,8.87
2018-11-21T23:55:35.813Z,8.13
2018-11-21T23:58:03.988Z,8.93
